createdAt,value
2023-02-22T00:08:16.667Z,981.9
2023-02-22T00:27:35.688Z,981.8
2023-02-22T00:46:53.313Z,981.8
2023-02-22T01:06:11.160Z,981.5
2023-02-22T01:25:31.050Z,981.4
2023-02-22T01:44:51.302Z,981.3
2023-02-22T02:04:08.469Z,981.2
2023-02-22T02:23:27.716Z,981
2023-02-22T02:42:46.032Z,980.9
2023-02-22T03:02:05.479Z,980.8
2023-02-22T03:21:23.797Z,980.7
2023-02-22T03:40:42.143Z,980.5
2023-02-22T04:00:01.455Z,980.5
2023-02-22T04:19:21.305Z,980.5
2023-02-22T04:38:39.238Z,980.4
2023-02-22T04:57:58.649Z,980.3
2023-02-22T05:17:17.774Z,980.1
2023-02-22T05:36:37.074Z,980.2
2023-02-22T05:55:55.138Z,979.9
2023-02-22T06:15:14.271Z,979.9
2023-02-22T06:34:32.963Z,980
2023-02-22T06:53:48.445Z,980
2023-02-22T07:13:09.612Z,980
2023-02-22T07:32:30.855Z,980
2023-02-22T07:51:50.077Z,979.9
2023-02-22T08:11:11.486Z,979.9
2023-02-22T08:30:32.838Z,979.8
2023-02-22T08:49:55.896Z,979.7
2023-02-22T09:09:18.604Z,979.5
2023-02-22T09:28:40.978Z,979.3
2023-02-22T09:48:22.915Z,979.3
2023-02-22T10:07:38.812Z,979.1
2023-02-22T10:26:56.142Z,979
2023-02-22T10:46:18.984Z,978.9
2023-02-22T11:05:40.644Z,978.8
2023-02-22T11:25:01.588Z,978.7
2023-02-22T11:44:20.880Z,978.6
2023-02-22T12:03:40.511Z,978.4
2023-02-22T12:23:00.410Z,978.2
2023-02-22T12:42:20.547Z,977.9
2023-02-22T13:01:42.693Z,977.9
2023-02-22T13:21:02.600Z,977.8
2023-02-22T13:40:20.500Z,977.8
2023-02-22T13:59:40.115Z,977.9
2023-02-22T14:18:58.640Z,977.9
2023-02-22T14:38:17.792Z,978
2023-02-22T14:57:36.793Z,977.9
2023-02-22T15:16:55.399Z,977.9
2023-02-22T15:36:14.645Z,977.9
2023-02-22T15:55:33.701Z,978
2023-02-22T16:14:50.207Z,978
2023-02-22T16:34:08.114Z,978.1
2023-02-22T16:53:24.855Z,978
2023-02-22T17:12:43.009Z,978.1
2023-02-22T17:32:02.039Z,978.2
2023-02-22T17:51:20.196Z,978.4
2023-02-22T18:10:38.767Z,978.5
2023-02-22T18:29:57.838Z,978.4
2023-02-22T18:49:16.889Z,978.3
2023-02-22T19:08:36.161Z,978.3
2023-02-22T19:27:55.587Z,978.3
2023-02-22T19:47:17.337Z,978.4
2023-02-22T20:06:34.080Z,978.5
2023-02-22T20:25:53.550Z,978.6
2023-02-22T20:45:12.606Z,978.6
2023-02-22T21:04:32.245Z,978.6
2023-02-22T21:23:48.900Z,978.6
2023-02-22T21:43:07.691Z,978.6
2023-02-22T22:02:26.462Z,978.7
2023-02-22T22:21:45.087Z,978.8
2023-02-22T22:41:04.893Z,978.8
2023-02-22T23:00:22.987Z,978.9
2023-02-22T23:19:42.591Z,978.9
2023-02-22T23:39:02.607Z,978.8
2023-02-22T23:58:21.716Z,978.8
